sensor_id;sensor_type;location;lat;lon;timestamp;pressure;altitude;pressure_sealevel;temperature;humidity
18795;BME280;29610;49.022;12.114;2023-04-08T00:02:40;97766.09;;;6.91;100.00
18795;BME280;29610;49.022;12.114;2023-04-08T00:05:29;97767.53;;;6.88;100.00
18795;BME280;29610;49.022;12.114;2023-04-08T00:08:18;97772.59;;;6.76;100.00
18795;BME280;29610;49.022;12.114;2023-04-08T00:11:07;97770.56;;;6.68;100.00
18795;BME280;29610;49.022;12.114;2023-04-08T00:13:58;97769.16;;;6.71;100.00
18795;BME280;29610;49.022;12.114;2023-04-08T00:16:47;97771.88;;;6.52;100.00
18795;BME280;29610;49.022;12.114;2023-04-08T00:19:36;97772.47;;;6.49;100.00
18795;BME280;29610;49.022;12.114;2023-04-08T00:22:25;97778.72;;;6.45;100.00
18795;BME280;29610;49.022;12.114;2023-04-08T00:25:14;97775.59;;;6.38;100.00
18795;BME280;29610;49.022;12.114;2023-04-08T00:28:03;97771.03;;;6.38;100.00
18795;BME280;29610;49.022;12.114;2023-04-08T00:30:53;97771.88;;;6.34;100.00
18795;BME280;29610;49.022;12.114;2023-04-08T00:33:42;97775.09;;;6.36;100.00
18795;BME280;29610;49.022;12.114;2023-04-08T00:36:32;97773.78;;;6.33;100.00
18795;BME280;29610;49.022;12.114;2023-04-08T00:39:22;97779.47;;;6.32;100.00
18795;BME280;29610;49.022;12.114;2023-04-08T00:42:11;97779.47;;;6.32;100.00
18795;BME280;29610;49.022;12.114;2023-04-08T00:45:00;97781.28;;;6.18;100.00
18795;BME280;29610;49.022;12.114;2023-04-08T00:47:50;97790.53;;;6.12;100.00
18795;BME280;29610;49.022;12.114;2023-04-08T00:50:39;97788.34;;;6.14;100.00
18795;BME280;29610;49.022;12.114;2023-04-08T00:53:30;97783.53;;;6.11;100.00
18795;BME280;29610;49.022;12.114;2023-04-08T00:56:20;97791.53;;;5.97;100.00
18795;BME280;29610;49.022;12.114;2023-04-08T00:59:09;97791.38;;;5.88;100.00
18795;BME280;29610;49.022;12.114;2023-04-08T01:02:07;97789.47;;;5.89;100.00
18795;BME280;29610;49.022;12.114;2023-04-08T01:05:05;97786.28;;;5.87;100.00
18795;BME280;29610;49.022;12.114;2023-04-08T01:07:54;97787.53;;;5.94;100.00
18795;BME280;29610;49.022;12.114;2023-04-08T01:10:50;97792.81;;;6.05;100.00
18795;BME280;29610;49.022;12.114;2023-04-08T01:13:44;97791.25;;;5.98;100.00
18795;BME280;29610;49.022;12.114;2023-04-08T01:16:35;97797.69;;;6.03;100.00
18795;BME280;29610;49.022;12.114;2023-04-08T01:19:33;97783.66;;;6.01;100.00
18795;BME280;29610;49.022;12.114;2023-04-08T01:22:33;97783.91;;;5.80;100.00
18795;BME280;29610;49.022;12.114;2023-04-08T01:25:31;97788.66;;;5.41;100.00
18795;BME280;29610;49.022;12.114;2023-04-08T01:28:26;97790.69;;;5.26;100.00
18795;BME280;29610;49.022;12.114;2023-04-08T01:31:17;97796.72;;;5.18;100.00
18795;BME280;29610;49.022;12.114;2023-04-08T01:34:07;97789.50;;;5.37;100.00
18795;BME280;29610;49.022;12.114;2023-04-08T01:36:58;97784.88;;;5.42;100.00
18795;BME280;29610;49.022;12.114;2023-04-08T01:39:48;97780.75;;;5.50;100.00
18795;BME280;29610;49.022;12.114;2023-04-08T01:42:39;97785.63;;;5.48;100.00
18795;BME280;29610;49.022;12.114;2023-04-08T01:45:32;97787.44;;;5.52;100.00
18795;BME280;29610;49.022;12.114;2023-04-08T01:48:22;97783.09;;;5.56;100.00
18795;BME280;29610;49.022;12.114;2023-04-08T01:51:12;97789.47;;;5.65;100.00
18795;BME280;29610;49.022;12.114;2023-04-08T01:54:01;97779.09;;;5.77;100.00
18795;BME280;29610;49.022;12.114;2023-04-08T01:56:53;97783.28;;;5.88;100.00
18795;BME280;29610;49.022;12.114;2023-04-08T01:59:48;97780.44;;;5.98;100.00
18795;BME280;29610;49.022;12.114;2023-04-08T02:02:42;97783.06;;;5.85;100.00
18795;BME280;29610;49.022;12.114;2023-04-08T02:05:33;97793.28;;;5.88;100.00
18795;BME280;29610;49.022;12.114;2023-04-08T02:08:22;97787.66;;;5.79;100.00
18795;BME280;29610;49.022;12.114;2023-04-08T02:11:11;97786.72;;;5.70;100.00
18795;BME280;29610;49.022;12.114;2023-04-08T02:14:00;97785.41;;;5.68;100.00
18795;BME280;29610;49.022;12.114;2023-04-08T02:16:53;97787.38;;;5.81;100.00
18795;BME280;29610;49.022;12.114;2023-04-08T02:19:51;97785.75;;;5.85;100.00
18795;BME280;29610;49.022;12.114;2023-04-08T02:22:56;97791.03;;;5.95;100.00
18795;BME280;29610;49.022;12.114;2023-04-08T02:25:49;97789.41;;;5.94;100.00
18795;BME280;29610;49.022;12.114;2023-04-08T02:28:41;97792.72;;;6.10;100.00
18795;BME280;29610;49.022;12.114;2023-04-08T02:31:32;97783.47;;;6.16;100.00
18795;BME280;29610;49.022;12.114;2023-04-08T02:34:23;97785.59;;;6.19;100.00
18795;BME280;29610;49.022;12.114;2023-04-08T02:37:15;97784.44;;;6.25;100.00
18795;BME280;29610;49.022;12.114;2023-04-08T02:40:21;97786.41;;;6.38;100.00
18795;BME280;29610;49.022;12.114;2023-04-08T02:43:10;97785.16;;;6.49;100.00
18795;BME280;29610;49.022;12.114;2023-04-08T02:46:00;97788.56;;;6.54;100.00
18795;BME280;29610;49.022;12.114;2023-04-08T02:48:51;97788.00;;;6.57;100.00
18795;BME280;29610;49.022;12.114;2023-04-08T02:51:39;97784.50;;;6.57;100.00
18795;BME280;29610;49.022;12.114;2023-04-08T02:54:30;97781.44;;;6.63;100.00
18795;BME280;29610;49.022;12.114;2023-04-08T02:57:19;97783.41;;;6.58;100.00
18795;BME280;29610;49.022;12.114;2023-04-08T03:00:09;97787.34;;;6.65;100.00
18795;BME280;29610;49.022;12.114;2023-04-08T03:02:58;97785.50;;;6.61;100.00
18795;BME280;29610;49.022;12.114;2023-04-08T03:05:48;97783.91;;;6.60;100.00
18795;BME280;29610;49.022;12.114;2023-04-08T03:08:37;97779.81;;;6.62;100.00
18795;BME280;29610;49.022;12.114;2023-04-08T03:11:27;97785.22;;;6.62;100.00
18795;BME280;29610;49.022;12.114;2023-04-08T03:14:16;97777.69;;;6.59;100.00
18795;BME280;29610;49.022;12.114;2023-04-08T03:17:04;97778.97;;;6.67;100.00
18795;BME280;29610;49.022;12.114;2023-04-08T03:19:53;97783.63;;;6.61;100.00
18795;BME280;29610;49.022;12.114;2023-04-08T03:22:42;97785.34;;;6.71;100.00
18795;BME280;29610;49.022;12.114;2023-04-08T03:25:31;97787.34;;;6.65;100.00
18795;BME280;29610;49.022;12.114;2023-04-08T03:28:21;97785.94;;;6.68;100.00
18795;BME280;29610;49.022;12.114;2023-04-08T03:31:10;97790.25;;;6.69;100.00
18795;BME280;29610;49.022;12.114;2023-04-08T03:33:59;97792.00;;;6.60;100.00
18795;BME280;29610;49.022;12.114;2023-04-08T03:36:48;97791.28;;;6.54;100.00
18795;BME280;29610;49.022;12.114;2023-04-08T03:39:37;97793.25;;;6.49;100.00
18795;BME280;29610;49.022;12.114;2023-04-08T03:42:26;97798.59;;;6.54;100.00
18795;BME280;29610;49.022;12.114;2023-04-08T03:45:16;97799.84;;;6.43;100.00
18795;BME280;29610;49.022;12.114;2023-04-08T03:48:06;97801.13;;;6.45;100.00
18795;BME280;29610;49.022;12.114;2023-04-08T03:50:55;97799.75;;;6.48;100.00
18795;BME280;29610;49.022;12.114;2023-04-08T03:53:44;97796.31;;;6.42;100.00
18795;BME280;29610;49.022;12.114;2023-04-08T03:56:34;97796.84;;;6.44;100.00
18795;BME280;29610;49.022;12.114;2023-04-08T03:59:23;97798.13;;;6.47;100.00
18795;BME280;29610;49.022;12.114;2023-04-08T04:02:13;97807.63;;;6.44;100.00
18795;BME280;29610;49.022;12.114;2023-04-08T04:05:03;97811.13;;;6.45;100.00
18795;BME280;29610;49.022;12.114;2023-04-08T04:07:52;97814.94;;;6.44;100.00
18795;BME280;29610;49.022;12.114;2023-04-08T04:10:41;97815.00;;;6.39;100.00
18795;BME280;29610;49.022;12.114;2023-04-08T04:13:30;97819.31;;;6.40;100.00
18795;BME280;29610;49.022;12.114;2023-04-08T04:16:19;97815.50;;;6.41;100.00
18795;BME280;29610;49.022;12.114;2023-04-08T04:19:09;97825.50;;;6.40;100.00
18795;BME280;29610;49.022;12.114;2023-04-08T04:21:58;97824.19;;;6.38;100.00
18795;BME280;29610;49.022;12.114;2023-04-08T04:24:47;97824.31;;;6.46;100.00
18795;BME280;29610;49.022;12.114;2023-04-08T04:27:36;97818.00;;;6.56;100.00
18795;BME280;29610;49.022;12.114;2023-04-08T04:30:25;97822.38;;;6.52;100.00
18795;BME280;29610;49.022;12.114;2023-04-08T04:33:14;97829.94;;;6.50;100.00
18795;BME280;29610;49.022;12.114;2023-04-08T04:36:05;97826.53;;;6.63;100.00
18795;BME280;29610;49.022;12.114;2023-04-08T04:38:54;97821.19;;;6.58;100.00
18795;BME280;29610;49.022;12.114;2023-04-08T04:41:43;97833.09;;;6.38;100.00
18795;BME280;29610;49.022;12.114;2023-04-08T04:44:34;97839.81;;;6.41;100.00
18795;BME280;29610;49.022;12.114;2023-04-08T04:47:23;97840.03;;;6.44;100.00
18795;BME280;29610;49.022;12.114;2023-04-08T04:50:12;97840.25;;;6.48;100.00
18795;BME280;29610;49.022;12.114;2023-04-08T04:53:02;97839.63;;;6.32;100.00
18795;BME280;29610;49.022;12.114;2023-04-08T04:55:51;97832.59;;;6.36;100.00
18795;BME280;29610;49.022;12.114;2023-04-08T04:58:39;97836.00;;;6.42;100.00
18795;BME280;29610;49.022;12.114;2023-04-08T05:01:28;97844.47;;;6.35;100.00
18795;BME280;29610;49.022;12.114;2023-04-08T05:04:17;97855.34;;;6.30;100.00
18795;BME280;29610;49.022;12.114;2023-04-08T05:07:06;97857.00;;;6.26;100.00
18795;BME280;29610;49.022;12.114;2023-04-08T05:09:56;97857.22;;;6.30;100.00
18795;BME280;29610;49.022;12.114;2023-04-08T05:12:45;97850.31;;;6.42;100.00
18795;BME280;29610;49.022;12.114;2023-04-08T05:15:34;97855.34;;;6.49;100.00
18795;BME280;29610;49.022;12.114;2023-04-08T05:18:23;97850.41;;;6.56;100.00
18795;BME280;29610;49.022;12.114;2023-04-08T05:21:12;97852.13;;;6.47;100.00
18795;BME280;29610;49.022;12.114;2023-04-08T05:24:00;97859.50;;;6.60;100.00
18795;BME280;29610;49.022;12.114;2023-04-08T05:26:51;97854.13;;;6.60;100.00
18795;BME280;29610;49.022;12.114;2023-04-08T05:29:40;97871.38;;;6.40;100.00
18795;BME280;29610;49.022;12.114;2023-04-08T05:32:29;97881.16;;;6.36;100.00
18795;BME280;29610;49.022;12.114;2023-04-08T05:35:18;97883.94;;;6.31;100.00
18795;BME280;29610;49.022;12.114;2023-04-08T05:38:07;97890.34;;;6.35;100.00
18795;BME280;29610;49.022;12.114;2023-04-08T05:40:57;97887.03;;;6.20;100.00
18795;BME280;29610;49.022;12.114;2023-04-08T05:43:47;97897.94;;;5.86;100.00
18795;BME280;29610;49.022;12.114;2023-04-08T05:46:37;97906.91;;;5.76;100.00
18795;BME280;29610;49.022;12.114;2023-04-08T05:49:26;97923.97;;;5.67;100.00
18795;BME280;29610;49.022;12.114;2023-04-08T05:52:14;97916.56;;;5.54;100.00
18795;BME280;29610;49.022;12.114;2023-04-08T05:55:05;97914.75;;;5.44;100.00
18795;BME280;29610;49.022;12.114;2023-04-08T05:57:54;97923.59;;;5.50;100.00
18795;BME280;29610;49.022;12.114;2023-04-08T06:00:44;97931.72;;;5.45;100.00
18795;BME280;29610;49.022;12.114;2023-04-08T06:03:33;97935.53;;;5.05;100.00
18795;BME280;29610;49.022;12.114;2023-04-08T06:06:23;97934.03;;;4.89;100.00
18795;BME280;29610;49.022;12.114;2023-04-08T06:09:12;97943.50;;;4.82;100.00
18795;BME280;29610;49.022;12.114;2023-04-08T06:12:01;97951.09;;;4.70;100.00
18795;BME280;29610;49.022;12.114;2023-04-08T06:14:53;97955.66;;;4.74;100.00
18795;BME280;29610;49.022;12.114;2023-04-08T06:17:44;97964.25;;;4.76;100.00
18795;BME280;29610;49.022;12.114;2023-04-08T06:20:34;97964.97;;;4.92;100.00
18795;BME280;29610;49.022;12.114;2023-04-08T06:23:23;97963.53;;;5.04;100.00
18795;BME280;29610;49.022;12.114;2023-04-08T06:26:12;97970.31;;;5.02;100.00
18795;BME280;29610;49.022;12.114;2023-04-08T06:29:00;97968.06;;;4.70;100.00
18795;BME280;29610;49.022;12.114;2023-04-08T06:31:51;97969.31;;;4.88;100.00
18795;BME280;29610;49.022;12.114;2023-04-08T06:34:43;97974.09;;;5.01;100.00
18795;BME280;29610;49.022;12.114;2023-04-08T06:37:32;97972.94;;;5.12;100.00
18795;BME280;29610;49.022;12.114;2023-04-08T06:40:25;97983.75;;;5.07;100.00
18795;BME280;29610;49.022;12.114;2023-04-08T06:43:14;97979.59;;;4.76;100.00
18795;BME280;29610;49.022;12.114;2023-04-08T06:46:04;97987.09;;;4.84;100.00
18795;BME280;29610;49.022;12.114;2023-04-08T06:48:53;97994.13;;;4.80;100.00
18795;BME280;29610;49.022;12.114;2023-04-08T06:51:43;97988.44;;;4.91;100.00
18795;BME280;29610;49.022;12.114;2023-04-08T06:54:32;97989.72;;;4.99;100.00
18795;BME280;29610;49.022;12.114;2023-04-08T06:57:21;97991.28;;;5.05;100.00
18795;BME280;29610;49.022;12.114;2023-04-08T07:00:10;97990.84;;;4.88;100.00
18795;BME280;29610;49.022;12.114;2023-04-08T07:03:00;97998.69;;;4.84;100.00
18795;BME280;29610;49.022;12.114;2023-04-08T07:05:49;98000.25;;;4.90;100.00
18795;BME280;29610;49.022;12.114;2023-04-08T07:08:39;97996.97;;;4.98;100.00
18795;BME280;29610;49.022;12.114;2023-04-08T07:11:28;97991.00;;;5.11;100.00
18795;BME280;29610;49.022;12.114;2023-04-08T07:14:17;98000.41;;;5.14;100.00
18795;BME280;29610;49.022;12.114;2023-04-08T07:17:07;98005.56;;;5.05;100.00
18795;BME280;29610;49.022;12.114;2023-04-08T07:19:56;98009.03;;;5.11;100.00
18795;BME280;29610;49.022;12.114;2023-04-08T07:22:44;98010.34;;;5.18;100.00
18795;BME280;29610;49.022;12.114;2023-04-08T07:25:35;98008.28;;;5.05;100.00
18795;BME280;29610;49.022;12.114;2023-04-08T07:28:24;98010.91;;;5.15;100.00
18795;BME280;29610;49.022;12.114;2023-04-08T07:31:16;98015.09;;;5.31;100.00
18795;BME280;29610;49.022;12.114;2023-04-08T07:34:05;98014.69;;;5.53;100.00
18795;BME280;29610;49.022;12.114;2023-04-08T07:36:54;98017.16;;;5.44;100.00
18795;BME280;29610;49.022;12.114;2023-04-08T07:39:43;98014.63;;;5.63;100.00
18795;BME280;29610;49.022;12.114;2023-04-08T07:42:33;98017.75;;;5.75;100.00
18795;BME280;29610;49.022;12.114;2023-04-08T07:45:22;98015.19;;;5.60;100.00
18795;BME280;29610;49.022;12.114;2023-04-08T07:48:11;98018.34;;;5.67;100.00
18795;BME280;29610;49.022;12.114;2023-04-08T07:51:03;98015.41;;;5.63;100.00
18795;BME280;29610;49.022;12.114;2023-04-08T07:53:58;98022.16;;;5.66;100.00
18795;BME280;29610;49.022;12.114;2023-04-08T07:56:47;98018.66;;;5.60;100.00
18795;BME280;29610;49.022;12.114;2023-04-08T07:59:37;98021.19;;;5.52;100.00
18795;BME280;29610;49.022;12.114;2023-04-08T08:02:26;98020.00;;;5.63;100.00
18795;BME280;29610;49.022;12.114;2023-04-08T08:05:15;98024.31;;;5.64;100.00
18795;BME280;29610;49.022;12.114;2023-04-08T08:08:04;98027.56;;;5.61;100.00
18795;BME280;29610;49.022;12.114;2023-04-08T08:10:54;98033.41;;;5.73;100.00
18795;BME280;29610;49.022;12.114;2023-04-08T08:13:43;98031.94;;;5.90;100.00
18795;BME280;29610;49.022;12.114;2023-04-08T08:16:33;98035.25;;;6.11;100.00
18795;BME280;29610;49.022;12.114;2023-04-08T08:19:23;98039.03;;;6.39;100.00
18795;BME280;29610;49.022;12.114;2023-04-08T08:22:12;98045.50;;;6.14;100.00
18795;BME280;29610;49.022;12.114;2023-04-08T08:25:00;98044.47;;;6.34;100.00
18795;BME280;29610;49.022;12.114;2023-04-08T08:27:51;98045.81;;;6.36;100.00
18795;BME280;29610;49.022;12.114;2023-04-08T08:30:40;98034.56;;;6.53;100.00
18795;BME280;29610;49.022;12.114;2023-04-08T08:33:30;98037.69;;;6.41;100.00
18795;BME280;29610;49.022;12.114;2023-04-08T08:36:19;98044.00;;;6.32;100.00
18795;BME280;29610;49.022;12.114;2023-04-08T08:39:08;98041.63;;;6.25;100.00
18795;BME280;29610;49.022;12.114;2023-04-08T08:41:57;98043.72;;;6.57;100.00
18795;BME280;29610;49.022;12.114;2023-04-08T08:44:46;98039.50;;;6.69;100.00
18795;BME280;29610;49.022;12.114;2023-04-08T08:47:35;98044.00;;;6.55;100.00
18795;BME280;29610;49.022;12.114;2023-04-08T08:50:26;98041.94;;;6.71;100.00
18795;BME280;29610;49.022;12.114;2023-04-08T08:53:15;98043.00;;;6.93;100.00
18795;BME280;29610;49.022;12.114;2023-04-08T08:56:08;98044.91;;;6.93;100.00
18795;BME280;29610;49.022;12.114;2023-04-08T08:59:05;98050.94;;;6.85;100.00
18795;BME280;29610;49.022;12.114;2023-04-08T09:01:53;98048.47;;;6.88;100.00
18795;BME280;29610;49.022;12.114;2023-04-08T09:04:56;98060.72;;;6.81;100.00
18795;BME280;29610;49.022;12.114;2023-04-08T09:07:47;98049.13;;;6.99;100.00
18795;BME280;29610;49.022;12.114;2023-04-08T09:10:36;98057.41;;;6.89;100.00
18795;BME280;29610;49.022;12.114;2023-04-08T09:13:34;98059.50;;;6.92;100.00
18795;BME280;29610;49.022;12.114;2023-04-08T09:16:24;98059.72;;;7.19;100.00
18795;BME280;29610;49.022;12.114;2023-04-08T09:19:13;98059.34;;;7.25;100.00
18795;BME280;29610;49.022;12.114;2023-04-08T09:22:07;98060.31;;;7.34;100.00
18795;BME280;29610;49.022;12.114;2023-04-08T09:24:58;98068.78;;;7.28;100.00
18795;BME280;29610;49.022;12.114;2023-04-08T09:27:47;98068.53;;;7.24;100.00
18795;BME280;29610;49.022;12.114;2023-04-08T09:30:36;98068.63;;;7.38;100.00
18795;BME280;29610;49.022;12.114;2023-04-08T09:33:29;98065.13;;;7.37;100.00
18795;BME280;29610;49.022;12.114;2023-04-08T09:36:19;98068.56;;;7.62;100.00
18795;BME280;29610;49.022;12.114;2023-04-08T09:39:08;98070.47;;;7.42;100.00
18795;BME280;29610;49.022;12.114;2023-04-08T09:42:01;98071.56;;;7.41;100.00
18795;BME280;29610;49.022;12.114;2023-04-08T09:44:53;98070.09;;;7.68;100.00
18795;BME280;29610;49.022;12.114;2023-04-08T09:47:55;98068.50;;;7.48;100.00
18795;BME280;29610;49.022;12.114;2023-04-08T09:50:49;98070.75;;;7.41;100.00
18795;BME280;29610;49.022;12.114;2023-04-08T09:53:45;98078.00;;;7.45;100.00
18795;BME280;29610;49.022;12.114;2023-04-08T09:56:43;98072.75;;;7.12;100.00
18795;BME280;29610;49.022;12.114;2023-04-08T09:59:44;98073.81;;;7.34;100.00
18795;BME280;29610;49.022;12.114;2023-04-08T10:02:42;98077.53;;;7.20;100.00
18795;BME280;29610;49.022;12.114;2023-04-08T10:05:38;98074.59;;;7.16;100.00
18795;BME280;29610;49.022;12.114;2023-04-08T10:08:29;98079.34;;;7.24;100.00
18795;BME280;29610;49.022;12.114;2023-04-08T10:11:19;98085.22;;;7.31;100.00
18795;BME280;29610;49.022;12.114;2023-04-08T10:14:08;98080.88;;;7.12;100.00
18795;BME280;29610;49.022;12.114;2023-04-08T10:17:25;98078.81;;;7.27;100.00
18795;BME280;29610;49.022;12.114;2023-04-08T10:20:42;98077.03;;;7.55;100.00
18795;BME280;29610;49.022;12.114;2023-04-08T10:23:55;98073.47;;;7.41;100.00
18795;BME280;29610;49.022;12.114;2023-04-08T10:26:46;98082.97;;;7.38;100.00
18795;BME280;29610;49.022;12.114;2023-04-08T10:29:35;98077.03;;;7.36;100.00
18795;BME280;29610;49.022;12.114;2023-04-08T10:32:28;98086.69;;;7.61;100.00
18795;BME280;29610;49.022;12.114;2023-04-08T10:35:27;98087.22;;;7.63;100.00
18795;BME280;29610;49.022;12.114;2023-04-08T10:38:17;98084.44;;;7.50;100.00
18795;BME280;29610;49.022;12.114;2023-04-08T10:41:09;98089.56;;;7.51;100.00
18795;BME280;29610;49.022;12.114;2023-04-08T10:43:58;98097.66;;;7.70;100.00
18795;BME280;29610;49.022;12.114;2023-04-08T10:46:49;98090.78;;;7.77;100.00
18795;BME280;29610;49.022;12.114;2023-04-08T10:49:39;98087.78;;;7.79;100.00
18795;BME280;29610;49.022;12.114;2023-04-08T10:52:31;98094.78;;;7.98;100.00
18795;BME280;29610;49.022;12.114;2023-04-08T10:55:22;98089.59;;;8.02;100.00
18795;BME280;29610;49.022;12.114;2023-04-08T10:58:11;98092.53;;;7.87;100.00
18795;BME280;29610;49.022;12.114;2023-04-08T11:01:03;98090.72;;;7.64;100.00
18795;BME280;29610;49.022;12.114;2023-04-08T11:03:54;98089.47;;;7.37;100.00
18795;BME280;29610;49.022;12.114;2023-04-08T11:06:46;98091.31;;;7.61;100.00
18795;BME280;29610;49.022;12.114;2023-04-08T11:09:34;98083.56;;;7.73;100.00
18795;BME280;29610;49.022;12.114;2023-04-08T11:12:24;98086.81;;;7.88;100.00
18795;BME280;29610;49.022;12.114;2023-04-08T11:15:14;98076.69;;;7.80;100.00
18795;BME280;29610;49.022;12.114;2023-04-08T11:18:04;98083.78;;;7.76;100.00
18795;BME280;29610;49.022;12.114;2023-04-08T11:20:53;98085.28;;;7.82;100.00
18795;BME280;29610;49.022;12.114;2023-04-08T11:23:48;98086.09;;;7.83;100.00
18795;BME280;29610;49.022;12.114;2023-04-08T11:26:39;98080.59;;;8.06;100.00
18795;BME280;29610;49.022;12.114;2023-04-08T11:29:29;98081.53;;;8.15;100.00
18795;BME280;29610;49.022;12.114;2023-04-08T11:32:19;98078.41;;;8.08;100.00
18795;BME280;29610;49.022;12.114;2023-04-08T11:35:09;98080.59;;;8.25;100.00
18795;BME280;29610;49.022;12.114;2023-04-08T11:37:58;98081.34;;;8.44;100.00
18795;BME280;29610;49.022;12.114;2023-04-08T11:40:53;98085.44;;;8.41;100.00
18795;BME280;29610;49.022;12.114;2023-04-08T11:43:54;98079.31;;;8.36;100.00
18795;BME280;29610;49.022;12.114;2023-04-08T11:46:51;98079.69;;;8.29;100.00
18795;BME280;29610;49.022;12.114;2023-04-08T11:49:46;98081.66;;;8.42;100.00
18795;BME280;29610;49.022;12.114;2023-04-08T11:52:43;98088.44;;;8.40;100.00
18795;BME280;29610;49.022;12.114;2023-04-08T11:55:32;98086.69;;;8.62;100.00
18795;BME280;29610;49.022;12.114;2023-04-08T11:58:23;98088.31;;;8.77;100.00
18795;BME280;29610;49.022;12.114;2023-04-08T12:01:12;98089.94;;;8.92;100.00
18795;BME280;29610;49.022;12.114;2023-04-08T12:04:01;98090.81;;;8.73;100.00
18795;BME280;29610;49.022;12.114;2023-04-08T12:06:50;98092.00;;;8.67;100.00
18795;BME280;29610;49.022;12.114;2023-04-08T12:09:39;98094.69;;;8.54;100.00
18795;BME280;29610;49.022;12.114;2023-04-08T12:12:28;98099.34;;;8.67;100.00
18795;BME280;29610;49.022;12.114;2023-04-08T12:15:19;98102.44;;;8.60;100.00
18795;BME280;29610;49.022;12.114;2023-04-08T12:18:07;98102.25;;;8.84;100.00
18795;BME280;29610;49.022;12.114;2023-04-08T12:20:56;98101.06;;;8.76;100.00
18795;BME280;29610;49.022;12.114;2023-04-08T12:23:45;98107.09;;;8.87;100.00
18795;BME280;29610;49.022;12.114;2023-04-08T12:26:34;98107.19;;;8.96;100.00
18795;BME280;29610;49.022;12.114;2023-04-08T12:29:23;98104.41;;;8.41;100.00
18795;BME280;29610;49.022;12.114;2023-04-08T12:32:13;98105.06;;;8.65;100.00
18795;BME280;29610;49.022;12.114;2023-04-08T12:35:02;98104.66;;;8.85;100.00
18795;BME280;29610;49.022;12.114;2023-04-08T12:37:51;98106.59;;;8.99;100.00
18795;BME280;29610;49.022;12.114;2023-04-08T12:40:40;98113.13;;;8.98;100.00
18795;BME280;29610;49.022;12.114;2023-04-08T12:43:29;98116.22;;;8.77;100.00
18795;BME280;29610;49.022;12.114;2023-04-08T12:46:19;98118.91;;;8.64;100.00
18795;BME280;29610;49.022;12.114;2023-04-08T12:49:09;98116.75;;;8.93;100.00
18795;BME280;29610;49.022;12.114;2023-04-08T12:51:58;98115.22;;;8.87;100.00
18795;BME280;29610;49.022;12.114;2023-04-08T12:54:47;98115.59;;;8.35;100.00
18795;BME280;29610;49.022;12.114;2023-04-08T12:57:36;98111.13;;;8.44;100.00
18795;BME280;29610;49.022;12.114;2023-04-08T13:00:25;98115.78;;;8.25;100.00
18795;BME280;29610;49.022;12.114;2023-04-08T13:03:13;98112.69;;;8.31;100.00
18795;BME280;29610;49.022;12.114;2023-04-08T13:06:05;98117.47;;;8.53;100.00
18795;BME280;29610;49.022;12.114;2023-04-08T13:08:54;98113.41;;;8.37;100.00
18795;BME280;29610;49.022;12.114;2023-04-08T13:11:43;98115.63;;;8.16;100.00
18795;BME280;29610;49.022;12.114;2023-04-08T13:14:32;98115.75;;;8.43;100.00
18795;BME280;29610;49.022;12.114;2023-04-08T13:17:21;98111.06;;;8.76;100.00
18795;BME280;29610;49.022;12.114;2023-04-08T13:20:10;98111.81;;;9.36;100.00
18795;BME280;29610;49.022;12.114;2023-04-08T13:23:01;98102.03;;;9.62;100.00
18795;BME280;29610;49.022;12.114;2023-04-08T13:25:49;98111.88;;;9.93;100.00
18795;BME280;29610;49.022;12.114;2023-04-08T13:28:38;98113.16;;;10.09;100.00
18795;BME280;29610;49.022;12.114;2023-04-08T13:31:43;98108.03;;;10.08;100.00
18795;BME280;29610;49.022;12.114;2023-04-08T13:34:32;98114.41;;;9.90;100.00
18795;BME280;29610;49.022;12.114;2023-04-08T13:37:21;98111.34;;;10.05;100.00
18795;BME280;29610;49.022;12.114;2023-04-08T13:40:12;98108.78;;;10.44;100.00
18795;BME280;29610;49.022;12.114;2023-04-08T13:43:01;98108.22;;;10.56;100.00
18795;BME280;29610;49.022;12.114;2023-04-08T13:45:49;98108.22;;;10.56;100.00
18795;BME280;29610;49.022;12.114;2023-04-08T13:48:39;98106.91;;;10.53;100.00
18795;BME280;29610;49.022;12.114;2023-04-08T13:51:28;98106.38;;;10.43;100.00
18795;BME280;29610;49.022;12.114;2023-04-08T13:54:18;98117.41;;;10.68;100.00
18795;BME280;29610;49.022;12.114;2023-04-08T13:57:08;98110.22;;;9.70;100.00
18795;BME280;29610;49.022;12.114;2023-04-08T13:59:57;98119.75;;;9.81;100.00
18795;BME280;29610;49.022;12.114;2023-04-08T14:02:47;98119.09;;;9.98;100.00
18795;BME280;29610;49.022;12.114;2023-04-08T14:05:37;98117.63;;;9.92;100.00
18795;BME280;29610;49.022;12.114;2023-04-08T14:08:26;98122.03;;;10.01;100.00
18795;BME280;29610;49.022;12.114;2023-04-08T14:11:15;98116.13;;;10.21;100.00
18795;BME280;29610;49.022;12.114;2023-04-08T14:14:05;98109.25;;;9.66;100.00
18795;BME280;29610;49.022;12.114;2023-04-08T14:16:54;98110.72;;;9.86;100.00
18795;BME280;29610;49.022;12.114;2023-04-08T14:19:43;98106.19;;;10.17;100.00
18795;BME280;29610;49.022;12.114;2023-04-08T14:22:32;98114.84;;;10.05;100.00
18795;BME280;29610;49.022;12.114;2023-04-08T14:25:21;98118.59;;;9.96;100.00
18795;BME280;29610;49.022;12.114;2023-04-08T14:28:10;98119.19;;;10.06;100.00
18795;BME280;29610;49.022;12.114;2023-04-08T14:31:00;98113.75;;;10.06;100.00
18795;BME280;29610;49.022;12.114;2023-04-08T14:33:50;98111.94;;;10.15;100.00
18795;BME280;29610;49.022;12.114;2023-04-08T14:36:39;98101.69;;;10.34;100.00
18795;BME280;29610;49.022;12.114;2023-04-08T14:39:28;98115.19;;;10.26;100.00
18795;BME280;29610;49.022;12.114;2023-04-08T14:42:17;98120.34;;;10.50;100.00
18795;BME280;29610;49.022;12.114;2023-04-08T14:45:07;98118.59;;;10.09;100.00
18795;BME280;29610;49.022;12.114;2023-04-08T14:47:58;98117.19;;;9.98;100.00
18795;BME280;29610;49.022;12.114;2023-04-08T14:50:47;98126.84;;;9.91;100.00
18795;BME280;29610;49.022;12.114;2023-04-08T14:53:36;98129.56;;;9.55;100.00